Airport ID:K2O1
Update Time (UTC):05/12/2021 04:37
Wind Speed (Knots):2
Wind Direction (Magnetic):230
Temperature (°C):0
Dew Point (°C):0
Humidity (%):100
Altimeter (inHg):30.32
Density Altitude (Feet):
Visibility (Miles):1/4
Clouds (Hundreds of feet):***
Present Weather:FZFG
METAR:METAR K2O1 050435Z AUTO 00000KT 1/4SM FZFG M01/M01 A3032 RMK A01

The data displayed is for advisory purposes only and is not to be used for flight planning or operations.